• Join FlightAware (Why Join?)
  • Login
  • US Flag GB Flag 
03:55 EDT


 

Airport Tracker/Info


-or-


 

Live Flight TrackerFlight Track Log ✈ DAL1836 ✈ 28-Feb-2012 ✈ KCHS - KATL

Flight Track Log - Related Links

Times and Time Zones

All times are in EST time to prevent confusion due to time zone crossing. See the DAL1836 flight status page for this flight to view local times or setup timezone preferences in your user account.

Time Position Orientation Groundspeed Altitude Reporting Facility
EST Latitude Longitude Course Direction KTS MPH feet Rate Location/Type
07:10 32.9206 -80.0914 271° West 189 217 2,200  Level Jacksonville Center
07:11 32.9222 -80.1728 273° West 223 257 4,900 3,120 Climbing Jacksonville Center
07:12 32.9261 -80.2594 263° West 245 282 8,500 3,000 Climbing Jacksonville Center
07:13 32.9156 -80.3561 262° West 277 319 11,000 2,100 Climbing Jacksonville Center
07:14 32.9050 -80.4481 261° West 313 360 12,800 2,700 Climbing Jacksonville Center
07:15 32.8867 -80.5819 261° West 353 406 16,400 3,300 Climbing Jacksonville Center
07:16 32.8700 -80.7111 262° West 385 443 19,500 2,700 Climbing Jacksonville Center
07:17 32.8536 -80.8450 259° West 400 460 21,900 1,200 Climbing Jacksonville Center
07:18 32.8325 -80.9792 261° West 415 478 22,000  Climbing Jacksonville Center
07:19 32.8136 -81.1131 262° West 415 478 21,900  Descending Jacksonville Center
07:20 32.7967 -81.2492 259° West 415 478 22,000  Climbing Jacksonville Center
07:21 32.7756 -81.3806 260° West 410 472 22,000  Level Jacksonville Center
07:23 32.7414 -81.6161 260° West 424 488 22,000  Level Atlanta Center
07:24 32.7208 -81.7525 261° West 424 488 22,000  Level Atlanta Center
07:25 32.7025 -81.8864 261° West 424 488 22,000  Level Atlanta Center
07:26 32.6839 -82.0200 282° West 419 482 22,000  Level Atlanta Center
07:27 32.7069 -82.1503 291° West 402 463 22,000  Level Atlanta Center
07:28 32.7483 -82.2778 289° West 407 468 22,000  Level Atlanta Center
07:29 32.7856 -82.4056 291° West 412 474 22,000  Level Atlanta Center
07:30 32.8269 -82.5308 291° West 417 480 22,000  Level Atlanta Center
07:31 32.8681 -82.6589 289° West 422 486 22,000  Level Atlanta Center
07:32 32.9069 -82.7917 291° West 422 486 22,000  Level Atlanta Center
07:33 32.9481 -82.9225 290° West 422 486 22,000  Level Atlanta Center
07:34 32.9867 -83.0483 288° West 422 486 22,000  Level Atlanta Center
07:35 33.0231 -83.1792 292° West 422 486 22,000 -540 Level Atlanta Center
07:36 33.0614 -83.2903 289° West 422 486 21,000 -1,020 Descending Atlanta Center
07:37 33.0956 -83.4089 289° West 398 458 20,000 -1,080 Descending Atlanta Center
07:38 33.1294 -83.5278 291° West 388 447 18,900 -1,080 Descending Atlanta Center
07:39 33.1675 -83.6442 290° West 383 441 17,900 -1,980 Descending Atlanta Center
07:40 33.2053 -83.7706 300° West 383 441 15,000 -1,980 Descending Atlanta Center
07:41 33.2556 -83.8750 310° West 371 427 14,000 -540 Descending Atlanta Center
07:42 33.3183 -83.9642 309° West 357 411 14,000  Level Atlanta Center
07:43 33.3789 -84.0536 311° West 357 411 14,000  Level Atlanta Center
07:44 33.4331 -84.1283 328° Northwest 325 374 14,000 -240 Level Atlanta Center
07:45 33.5000 -84.1783 327° Northwest 292 336 13,600 -480 Descending Atlanta Center
07:46 33.5686 -84.2308 326° Northwest 287 330 13,100 -360 Descending Atlanta Center
07:47 33.6333 -84.2833 337° Northwest 288 331 12,900 -1,020 Descending Atlanta TRACON
07:48 33.7000 -84.3167 296° West 296 341 11,300 -1,440 Descending Atlanta TRACON
07:49 33.7333 -84.4000 270° West 277 319 10,200 -1,440 Descending Atlanta TRACON
07:50 33.7333 -84.4833 270° West 271 312 8,500 -1,860 Descending Atlanta TRACON
07:51 33.7333 -84.5667 231° Southwest 250 288 6,700 -1,860 Descending Atlanta TRACON
07:52 33.7000 -84.6167 164° South 217 250 5,000 -1,500 Descending Atlanta TRACON
07:52 33.6500 -84.6000 90° East 197 227 3,900 -1,020 Descending Atlanta TRACON
07:53 33.6500 -84.5500 90° East 148 170 3,100 -900 Descending Atlanta TRACON
07:54 33.6500 -84.5167 90° East 132 152 2,200 -840 Descending Atlanta TRACON
07:55 33.6500 -84.4667 90° East 128 147 1,600 -600 Descending Atlanta TRACON